Time;durP1;ratioP1;P1;durP2;ratioP2;P2;SDS_P1;SDS_P2;PMS_P1;PMS_P2;Temp;Humidity;BMP_temperature;BMP_pressure;BME280_temperature;BME280_humidity;BME280_pressure;Samples;Min_cycle;Max_cycle;Signal;HPM_P1;HPM_P2
2024/01/04 00:02:21;;;;;;;2.17;1.17;;;;;;;;;;4743458;24;20071;-95
2024/01/04 00:04:54;;;;;;;;;;;6.40;99.90;;;;;;4723519;30;20060;-96
2024/01/04 01:45:26;;;;;;;;;;;;;;;;;;;;;
2024/01/04 11:43:52;;;;;;;3.35;1.25;;;;;;;;;;5098595;27;20821;-96
2024/01/04 11:46:23;;;;;;;1.25;1.02;;;;;;;;;;5080318;28;20070;-96
2024/01/04 11:48:53;;;;;;;1.35;1.10;;;;;;;;;;5081176;28;20098;-96
2024/01/04 11:51:34;;;;;;;1.58;0.82;;;;;;;;;;5078835;28;20078;-96
2024/01/04 11:54:01;;;;;;;3.40;1.75;;;;;;;;;;5079344;28;20047;-96
2024/01/04 11:56:27;;;;;;;7.40;1.50;;;;;;;;;;5080674;28;20050;-96
2024/01/04 11:58:56;;;;;;;4.18;1.45;;;;;;;;;;5084555;28;20077;-96
2024/01/04 12:01:28;;;;;;;3.55;1.48;;;;;;;;;;5083326;28;20032;-96
2024/01/04 12:03:59;;;;;;;2.10;1.30;;;;;;;;;;5080975;28;20133;-96
2024/01/04 12:06:31;;;;;;;2.05;1.00;;;;;;;;;;5079417;28;20090;-96
2024/01/04 12:09:02;;;;;;;2.45;1.08;;;;;;;;;;5077959;28;20098;-96
2024/01/04 12:11:28;;;;;;;2.40;0.85;;;;;;;;;;5076353;28;20046;-96
2024/01/04 12:13:57;;;;;;;2.28;0.90;;;;;;;;;;5076704;28;20048;-96
2024/01/04 12:16:26;;;;;;;1.88;1.02;;;;;;;;;;5076651;28;20087;-95
2024/01/04 12:18:55;;;;;;;1.00;1.00;;;;;;;;;;5077022;28;20036;-96
2024/01/04 12:21:24;;;;;;;3.70;1.17;;;;;;;;;;5058802;28;20054;-95
2024/01/04 12:23:51;;;;;;;9.85;1.90;;;;;;;;;;5074893;28;20071;-96
2024/01/04 12:26:28;;;;;;;2.83;1.40;;;;;;;;;;5074308;28;20032;-96
2024/01/04 12:28:59;;;;;;;5.93;1.58;;;;;;;;;;5074871;28;20051;-96
2024/01/04 12:31:25;;;;;;;1.85;1.15;;;;;;;;;;5073912;28;20044;-96
2024/01/04 12:33:57;;;;;;;2.78;1.20;;;;;;;;;;5074617;28;20044;-96
2024/01/04 12:36:24;;;;;;;1.40;0.98;;;;;;;;;;5073889;28;20079;-96
2024/01/04 12:38:54;;;;;;;0.95;0.90;;;;;;;;;;5074177;28;20051;-96
2024/01/04 12:41:29;;;;;;;1.15;0.98;;;;;;;;;;5074491;28;20059;-96
2024/01/04 12:43:56;;;;;;;1.20;0.93;;;;;;;;;;5074046;28;20142;-96
2024/01/04 12:46:23;;;;;;;2.58;0.90;;;;;;;;;;5074382;28;20086;-96
2024/01/04 12:48:53;;;;;;;1.50;1.00;;;;;;;;;;5072917;28;20042;-95
2024/01/04 12:51:26;;;;;;;3.42;1.00;;;;;;;;;;5072633;28;20094;-94
2024/01/04 12:53:52;;;;;;;3.55;0.70;;;;;;;;;;5065183;28;20040;-95
2024/01/04 12:56:20;;;;;;;0.98;0.80;;;;;;;;;;5059242;28;20083;-94
2024/01/04 12:58:46;;;;;;;2.22;1.15;;;;;;;;;;5043460;28;20108;-95
2024/01/04 13:01:12;;;;;;;0.68;0.68;;;;;;;;;;5059406;28;20049;-95
2024/01/04 13:03:38;;;;;;;2.25;1.02;;;;;;;;;;5059362;28;20052;-94
2024/01/04 13:06:05;;;;;;;2.22;0.98;;;;;;;;;;5059446;28;20455;-94
2024/01/04 13:08:31;;;;;;;3.03;0.80;;;;;;;;;;5059664;28;20044;-95
2024/01/04 13:10:57;;;;;;;2.05;1.00;;;;;;;;;;5060777;28;20032;-94
2024/01/04 13:13:25;;;;;;;1.08;0.98;;;;;;;;;;5060335;28;20041;-95
2024/01/04 13:15:52;;;;;;;1.05;0.80;;;;;;;;;;5060593;28;20078;-94
2024/01/04 13:18:18;;;;;;;1.17;1.05;;;;;;;;;;5059495;28;20045;-94
2024/01/04 13:20:44;;;;;;;1.90;1.20;;;;;;;;;;5059190;28;20136;-95
2024/01/04 13:23:10;;;;;;;4.63;1.13;;;;;;;;;;5059609;28;20412;-94
2024/01/04 13:25:36;;;;;;;2.83;1.15;;;;;;;;;;5060408;28;20037;-94
2024/01/04 13:28:03;;;;;;;3.03;1.30;;;;;;;;;;5059147;28;20489;-95
2024/01/04 13:30:30;;;;;;;0.80;0.80;;;;;;;;;;5058708;28;20037;-95
2024/01/04 13:32:56;;;;;;;3.88;2.25;;;;;;;;;;5059323;28;20066;-94
2024/01/04 13:35:23;;;;;;;2.25;1.48;;;;;;;;;;5059094;28;20047;-94
2024/01/04 13:37:49;;;;;;;3.83;1.40;;;;;;;;;;5058775;28;20059;-95
2024/01/04 13:40:15;;;;;;;4.22;1.23;;;;;;;;;;5059181;28;20373;-95
2024/01/04 13:42:44;;;;;;;2.92;1.20;;;;;;;;;;5058642;28;20052;-94
2024/01/04 13:45:11;;;;;;;3.22;1.27;;;;;;;;;;5058457;28;20055;-94
2024/01/04 13:47:37;;;;;;;2.28;1.60;;;;;;;;;;5042205;28;20052;-94
2024/01/04 13:50:04;;;;;;;3.42;1.38;;;;;;;;;;5042695;28;20404;-94
2024/01/04 13:52:30;;;;;;;1.40;1.02;;;;;;;;;;5058562;28;20049;-95
2024/01/04 13:54:56;;;;;;;4.60;1.20;;;;;;;;;;5041808;28;20477;-94
2024/01/04 13:57:22;;;;;;;3.42;1.48;;;;;;;;;;5058238;28;20049;-95
2024/01/04 13:59:48;;;;;;;2.47;1.40;;;;;;;;;;5059226;28;20048;-94
2024/01/04 14:02:15;;;;;;;1.70;1.15;;;;;;;;;;5058048;28;20079;-94
2024/01/04 14:04:42;;;;;;;3.20;1.20;;;;;;;;;;5057624;28;20105;-94
2024/01/04 14:07:09;;;;;;;2.35;1.48;;;;;;;;;;5057248;28;20090;-95
2024/01/04 14:09:35;;;;;;;2.90;1.60;;;;;;;;;;5058257;28;20040;-93
2024/01/04 14:12:03;;;;;;;1.45;1.33;;;;;;;;;;5057914;28;20048;-94
2024/01/04 14:14:29;;;;;;;1.67;1.20;;;;;;;;;;5058186;28;20381;-96
2024/01/04 14:16:55;;;;;;;1.80;1.60;;;;;;;;;;5058512;28;20044;-95
2024/01/04 14:19:21;;;;;;;2.85;1.33;;;;;;;;;;5063743;28;20100;-95
2024/01/04 14:21:47;;;;;;;3.75;1.42;;;;;;;;;;5063815;28;20048;-95
2024/01/04 14:24:13;;;;;;;2.03;1.20;;;;;;;;;;5064605;28;20045;-94
2024/01/04 14:26:39;;;;;;;2.60;1.40;;;;;;;;;;5059525;28;20076;-95
2024/01/04 14:29:05;;;;;;;1.50;1.08;;;;;;;;;;5057717;28;20412;-94
2024/01/04 14:31:31;;;;;;;4.78;1.45;;;;;;;;;;5041002;28;20044;-95
2024/01/04 14:33:57;;;;;;;1.88;1.45;;;;;;;;;;5057600;28;20413;-94
2024/01/04 14:36:24;;;;;;;5.35;1.58;;;;;;;;;;5057756;28;20048;-95
2024/01/04 14:38:50;;;;;;;1.90;1.25;;;;;;;;;;5057622;28;20068;-95
2024/01/04 14:41:16;;;;;;;1.90;1.30;;;;;;;;;;5057542;28;20377;-94
2024/01/04 14:43:42;;;;;;;7.70;2.30;;;;;;;;;;5040884;28;20466;-94
2024/01/04 14:46:08;;;;;;;2.72;1.52;;;;;;;;;;5057633;28;20040;-94
2024/01/04 14:48:34;;;;;;;5.55;1.88;;;;;;;;;;5040701;28;20127;-94
2024/01/04 14:51:01;;;;;;;2.95;1.45;;;;;;;;;;5057794;28;20040;-94
2024/01/04 14:53:28;;;;;;;3.00;1.33;;;;;;;;;;5057500;28;20139;-94
2024/01/04 14:55:54;;;;;;;17.80;3.30;;;;;;;;;;5057297;28;20071;-94
2024/01/04 14:58:20;;;;;;;2.40;1.40;;;;;;;;;;5057311;28;20511;-95
2024/01/04 15:00:46;;;;;;;3.33;1.42;;;;;;;;;;5057743;28;20040;-95
2024/01/04 15:03:12;;;;;;;3.38;1.27;;;;;;;;;;5057306;28;20079;-94
2024/01/04 15:05:39;;;;;;;5.45;1.55;;;;;;;;;;5057598;28;20044;-94
2024/01/04 15:08:06;;;;;;;3.45;1.50;;;;;;;;;;5057363;28;20047;-94
2024/01/04 15:10:32;;;;;;;2.03;1.33;;;;;;;;;;5056853;28;20044;-94
2024/01/04 15:12:58;;;;;;;1.98;1.27;;;;;;;;;;5040470;28;20037;-94
2024/01/04 15:15:24;;;;;;;2.25;1.65;;;;;;;;;;5064150;22;20142;-94
2024/01/04 15:18:00;;;;;;;3.67;1.50;;;;;;;;;;5037240;28;20095;-94
2024/01/04 15:20:27;;;;;;;3.38;2.65;;;;;;;;;;5036669;28;20033;-94
2024/01/04 15:22:54;;;;;;;1.63;1.23;;;;;;;;;;5036411;28;20057;-93
2024/01/04 15:25:21;;;;;;;1.60;1.40;;;;;;;;;;5036653;28;20147;-95
2024/01/04 15:27:56;;;;;;;4.70;1.35;;;;;;;;;;5038339;28;20091;-95
2024/01/04 15:30:22;;;;;;;2.88;1.58;;;;;;;;;;5046321;28;20085;-95
2024/01/04 15:32:53;;;;;;;1.95;1.67;;;;;;;;;;5029936;28;20041;-95
2024/01/04 15:35:19;;;;;;;3.42;2.03;;;;;;;;;;5045056;28;20052;-95
2024/01/04 15:37:54;;;;;;;5.38;2.28;;;;;;;;;;5047022;28;20045;-96
2024/01/04 15:40:21;;;;;;;3.20;1.70;;;;;;;;;;5045232;28;20136;-96
2024/01/04 15:42:50;;;;;;;1.98;1.50;;;;;;;;;;5029389;28;20045;-96
2024/01/04 15:45:17;;;;;;;3.90;2.53;;;;;;;;;;5060392;28;20409;-96
2024/01/04 15:47:43;;;;;;;3.83;2.30;;;;;;;;;;5045111;28;20041;-96
2024/01/04 15:50:10;;;;;;;5.13;2.03;;;;;;;;;;5045051;28;20049;-95
2024/01/04 15:52:36;;;;;;;2.88;1.95;;;;;;;;;;5043984;28;20045;-96
2024/01/04 15:55:02;;;;;;;2.13;2.00;;;;;;;;;;5046346;28;20037;-95
2024/01/04 15:57:28;;;;;;;7.72;2.20;;;;;;;;;;5044695;28;20049;-96
2024/01/04 15:59:54;;;;;;;7.15;3.70;;;;;;;;;;5037967;28;20098;-93
2024/01/04 16:02:21;;;;;;;9.50;5.53;;;;;;;;;;5035932;28;20060;-94
2024/01/04 16:04:47;;;;;;;7.63;5.10;;;;;;;;;;5035903;28;20052;-94
2024/01/04 16:07:16;;;;;;;7.05;3.35;;;;;;;;;;5035884;28;20408;-94
2024/01/04 16:09:42;;;;;;;2.90;2.40;;;;;;;;;;5035947;28;20041;-94
2024/01/04 16:12:08;;;;;;;6.75;3.67;;;;;;;;;;5036479;28;20183;-93
2024/01/04 16:14:35;;;;;;;6.30;3.25;;;;;;;;;;5036127;28;20053;-94
2024/01/04 16:17:03;;;;;;;3.60;2.95;;;;;;;;;;5035994;28;20547;-93
2024/01/04 16:19:29;;;;;;;5.38;3.38;;;;;;;;;;5036097;28;20045;-94
2024/01/04 16:21:55;;;;;;;8.73;5.25;;;;;;;;;;5035858;28;20060;-94
2024/01/04 16:24:21;;;;;;;14.95;6.20;;;;;;;;;;5019756;28;20053;-93
2024/01/04 16:26:47;;;;;;;8.93;5.97;;;;;;;;;;5036099;28;20090;-94
2024/01/04 16:29:16;;;;;;;9.35;7.00;;;;;;;;;;5037677;28;20087;-93
2024/01/04 16:31:42;;;;;;;5.07;4.32;;;;;;;;;;5039855;28;20076;-94
2024/01/04 16:34:09;;;;;;;4.72;3.30;;;;;;;;;;5039440;28;20509;-94
2024/01/04 16:36:35;;;;;;;4.20;2.70;;;;;;;;;;5039587;28;20087;-94
2024/01/04 16:39:01;;;;;;;4.65;3.15;;;;;;;;;;5039795;28;20045;-94
2024/01/04 16:41:27;;;;;;;5.65;2.20;;;;;;;;;;5039393;28;20055;-94
2024/01/04 16:43:54;;;;;;;5.32;2.58;;;;;;;;;;5050060;28;20060;-94
2024/01/04 16:46:21;;;;;;;4.82;2.70;;;;;;;;;;5052535;28;20080;-96
2024/01/04 16:48:53;;;;;;;9.85;2.05;;;;;;;;;;5030445;28;20509;-96
2024/01/04 16:51:19;;;;;;;4.07;2.17;;;;;;;;;;5031536;28;20045;-95
2024/01/04 16:53:45;;;;;;;3.83;2.03;;;;;;;;;;5047948;28;20405;-96
2024/01/04 16:56:11;;;;;;;14.23;7.13;;;;;;;;;;5047454;28;20041;-95
2024/01/04 16:58:38;;;;;;;9.40;5.75;;;;;;;;;;5031021;28;20056;-96
2024/01/04 17:01:04;;;;;;;7.32;4.65;;;;;;;;;;5049827;28;20132;-96
2024/01/04 17:03:50;;;;;;;10.52;5.60;;;;;;;;;;5050831;28;20047;-94
2024/01/04 17:06:18;;;;;;;7.95;5.05;;;;;;;;;;5051254;28;20049;-95
2024/01/04 17:08:45;;;;;;;13.98;6.80;;;;;;;;;;5046486;28;20041;-95
2024/01/04 17:11:11;;;;;;;10.80;5.43;;;;;;;;;;5046562;28;20079;-94
2024/01/04 17:13:37;;;;;;;16.55;7.78;;;;;;;;;;5045862;28;20064;-95
2024/01/04 17:16:04;;;;;;;7.93;4.72;;;;;;;;;;5045610;28;20053;-96
2024/01/04 17:18:32;;;;;;;7.28;4.07;;;;;;;;;;5045875;28;20045;-95
2024/01/04 17:20:58;;;;;;;14.02;5.93;;;;;;;;;;5045153;28;20052;-94
2024/01/04 17:23:26;;;;;;;10.07;4.60;;;;;;;;;;5044704;28;20041;-95
2024/01/04 17:25:52;;;;;;;8.23;3.85;;;;;;;;;;5045903;28;20048;-95
2024/01/04 17:28:18;;;;;;;11.30;5.25;;;;;;;;;;5044220;28;20080;-96
2024/01/04 17:30:51;;;;;;;6.55;3.50;;;;;;;;;;5031161;28;20060;-95
2024/01/04 17:33:17;;;;;;;6.72;3.65;;;;;;;;;;5044283;28;20040;-95
2024/01/04 17:35:49;;;;;;;4.70;3.10;;;;;;;;;;5044538;28;20041;-95
2024/01/04 17:38:15;;;;;;;4.40;3.15;;;;;;;;;;5044339;28;20041;-94
2024/01/04 17:40:41;;;;;;;3.47;2.72;;;;;;;;;;5044516;28;20049;-96
2024/01/04 17:43:07;;;;;;;4.68;2.50;;;;;;;;;;5044751;28;20382;-94
2024/01/04 17:45:34;;;;;;;3.78;2.60;;;;;;;;;;5027684;28;20045;-95
2024/01/04 17:48:00;;;;;;;3.65;2.42;;;;;;;;;;5045425;28;20049;-95
2024/01/04 17:50:26;;;;;;;4.80;2.28;;;;;;;;;;5045095;28;20049;-96
2024/01/04 17:52:52;;;;;;;7.85;3.08;;;;;;;;;;5043701;28;20045;-95
2024/01/04 17:55:18;;;;;;;4.45;2.70;;;;;;;;;;5042675;28;20045;-94
2024/01/04 17:57:44;;;;;;;5.13;3.30;;;;;;;;;;5026567;28;20045;-95
2024/01/04 18:00:11;;;;;;;6.07;3.63;;;;;;;;;;5026599;28;20053;-94
2024/01/04 18:02:37;;;;;;;2.97;2.53;;;;;;;;;;5041975;28;20045;-95
2024/01/04 18:05:04;;;;;;;2.58;2.38;;;;;;;;;;5043295;28;20045;-95
2024/01/04 18:07:32;;;;;;;4.13;2.50;;;;;;;;;;5044270;28;20064;-94
2024/01/04 18:10:01;;;;;;;7.32;3.58;;;;;;;;;;5045988;28;20064;-96
2024/01/04 18:12:27;;;;;;;2.20;2.00;;;;;;;;;;5045621;28;20040;-95
2024/01/04 18:14:53;;;;;;;5.72;2.70;;;;;;;;;;5043992;28;20084;-94
2024/01/04 18:17:22;;;;;;;3.38;2.97;;;;;;;;;;5044827;28;20102;-95
2024/01/04 18:19:48;;;;;;;3.17;2.50;;;;;;;;;;5029462;28;20048;-95
2024/01/04 18:22:14;;;;;;;3.47;2.55;;;;;;;;;;5045965;28;20485;-96
2024/01/04 18:24:40;;;;;;;4.35;2.20;;;;;;;;;;5045747;28;20075;-95
2024/01/04 18:27:06;;;;;;;5.30;2.42;;;;;;;;;;5043402;28;20106;-95
2024/01/04 18:29:35;;;;;;;3.10;2.75;;;;;;;;;;5046793;28;20048;-95
2024/01/04 18:32:01;;;;;;;3.33;2.53;;;;;;;;;;5048829;28;20051;-95
2024/01/04 18:34:27;;;;;;;3.55;2.60;;;;;;;;;;5046120;28;20473;-94
2024/01/04 18:36:54;;;;;;;10.75;3.85;;;;;;;;;;5046149;28;20045;-95
2024/01/04 18:39:20;;;;;;;22.75;8.40;;;;;;;;;;5046102;28;20408;-96
2024/01/04 18:41:46;;;;;;;12.77;5.35;;;;;;;;;;5046638;28;20379;-94
2024/01/04 18:44:16;;;;;;;11.30;6.07;;;;;;;;;;5046800;28;20067;-94
2024/01/04 18:46:45;;;;;;;10.93;6.38;;;;;;;;;;5043929;28;20055;-95
2024/01/04 18:49:11;;;;;;;15.23;5.80;;;;;;;;;;5028146;28;20072;-94
2024/01/04 18:51:37;;;;;;;6.65;3.33;;;;;;;;;;5045654;28;20099;-94
2024/01/04 18:54:06;;;;;;;10.27;5.20;;;;;;;;;;5048050;28;20041;-94
2024/01/04 18:56:33;;;;;;;9.75;5.00;;;;;;;;;;5049024;28;20084;-93
2024/01/04 18:59:01;;;;;;;7.93;5.93;;;;;;;;;;5048145;28;20095;-94
2024/01/04 19:01:27;;;;;;;15.88;8.88;;;;;;;;;;5047670;28;20049;-95
2024/01/04 19:03:53;;;;;;;10.45;5.85;;;;;;;;;;5047691;28;20485;-95
2024/01/04 19:06:19;;;;;;;15.63;6.50;;;;;;;;;;5046420;28;20128;-93
2024/01/04 19:08:48;;;;;;;11.43;5.55;;;;;;;;;;5046003;28;20503;-95
2024/01/04 19:11:15;;;;;;;5.53;3.22;;;;;;;;;;5048991;28;20508;-95
2024/01/04 19:13:46;;;;;;;6.82;3.70;;;;;;;;;;5052553;28;20040;-94
2024/01/04 19:16:16;;;;;;;3.60;2.30;;;;;;;;;;5038033;28;20032;-94
2024/01/04 22:14:02;;;;;;;10.75;4.65;;;;;;;;;;4894878;24;20059;-93
